sensor_id;sensor_type;location;lat;lon;timestamp;temperature;humidity
20985;DHT22;10651;47.552;7.606;2022-07-18T00:01:48;21.90;98.60
20985;DHT22;10651;47.552;7.606;2022-07-18T00:04:14;21.80;99.30
20985;DHT22;10651;47.552;7.606;2022-07-18T00:06:40;21.80;99.90
20985;DHT22;10651;47.552;7.606;2022-07-18T00:09:05;21.80;99.90
20985;DHT22;10651;47.552;7.606;2022-07-18T00:11:31;21.90;99.90
20985;DHT22;10651;47.552;7.606;2022-07-18T00:13:56;21.90;99.90
20985;DHT22;10651;47.552;7.606;2022-07-18T00:16:22;21.90;99.90
20985;DHT22;10651;47.552;7.606;2022-07-18T00:18:48;22.00;99.90
20985;DHT22;10651;47.552;7.606;2022-07-18T00:21:14;21.90;99.90
20985;DHT22;10651;47.552;7.606;2022-07-18T00:23:40;21.80;99.90
20985;DHT22;10651;47.552;7.606;2022-07-18T00:26:05;21.70;99.90
20985;DHT22;10651;47.552;7.606;2022-07-18T00:28:31;21.70;99.90
20985;DHT22;10651;47.552;7.606;2022-07-18T00:30:57;21.70;99.90
20985;DHT22;10651;47.552;7.606;2022-07-18T00:33:22;21.70;99.90
20985;DHT22;10651;47.552;7.606;2022-07-18T00:35:48;21.80;99.90
20985;DHT22;10651;47.552;7.606;2022-07-18T00:38:14;21.70;99.90
20985;DHT22;10651;47.552;7.606;2022-07-18T00:40:39;21.70;99.90
20985;DHT22;10651;47.552;7.606;2022-07-18T00:43:05;21.70;99.90
20985;DHT22;10651;47.552;7.606;2022-07-18T00:45:31;21.60;99.90
20985;DHT22;10651;47.552;7.606;2022-07-18T00:47:56;21.60;99.90
20985;DHT22;10651;47.552;7.606;2022-07-18T00:50:23;21.60;99.90
20985;DHT22;10651;47.552;7.606;2022-07-18T00:52:49;21.40;99.90
20985;DHT22;10651;47.552;7.606;2022-07-18T00:55:15;21.40;99.90
20985;DHT22;10651;47.552;7.606;2022-07-18T00:57:41;21.30;99.90
20985;DHT22;10651;47.552;7.606;2022-07-18T01:00:10;21.30;99.90
20985;DHT22;10651;47.552;7.606;2022-07-18T01:02:55;21.30;99.90
20985;DHT22;10651;47.552;7.606;2022-07-18T01:05:21;21.20;99.90
20985;DHT22;10651;47.552;7.606;2022-07-18T01:07:47;21.30;99.90
20985;DHT22;10651;47.552;7.606;2022-07-18T01:10:12;21.20;99.90
20985;DHT22;10651;47.552;7.606;2022-07-18T01:12:38;21.20;99.90
20985;DHT22;10651;47.552;7.606;2022-07-18T01:15:05;21.10;99.90
20985;DHT22;10651;47.552;7.606;2022-07-18T01:17:31;21.00;99.90
20985;DHT22;10651;47.552;7.606;2022-07-18T01:19:57;21.10;99.90
20985;DHT22;10651;47.552;7.606;2022-07-18T01:22:23;21.00;99.90
20985;DHT22;10651;47.552;7.606;2022-07-18T01:24:49;20.90;99.90
20985;DHT22;10651;47.552;7.606;2022-07-18T01:27:16;20.80;99.90
20985;DHT22;10651;47.552;7.606;2022-07-18T01:29:43;20.80;99.90
20985;DHT22;10651;47.552;7.606;2022-07-18T01:32:10;20.80;99.90
20985;DHT22;10651;47.552;7.606;2022-07-18T01:34:36;20.80;99.90
20985;DHT22;10651;47.552;7.606;2022-07-18T01:37:03;20.80;99.90
20985;DHT22;10651;47.552;7.606;2022-07-18T01:39:29;20.70;99.90
20985;DHT22;10651;47.552;7.606;2022-07-18T01:42:06;20.70;99.90
20985;DHT22;10651;47.552;7.606;2022-07-18T01:44:33;20.70;99.90
20985;DHT22;10651;47.552;7.606;2022-07-18T01:47:00;20.60;99.90
20985;DHT22;10651;47.552;7.606;2022-07-18T01:49:28;20.60;99.90
20985;DHT22;10651;47.552;7.606;2022-07-18T01:51:56;20.70;99.90
20985;DHT22;10651;47.552;7.606;2022-07-18T01:54:24;20.80;99.90
20985;DHT22;10651;47.552;7.606;2022-07-18T01:56:50;20.80;99.90
20985;DHT22;10651;47.552;7.606;2022-07-18T01:59:16;20.70;99.90
20985;DHT22;10651;47.552;7.606;2022-07-18T02:01:41;20.60;99.90
20985;DHT22;10651;47.552;7.606;2022-07-18T02:04:07;20.60;99.90
20985;DHT22;10651;47.552;7.606;2022-07-18T02:06:33;20.70;99.90
20985;DHT22;10651;47.552;7.606;2022-07-18T02:08:58;20.70;99.90
20985;DHT22;10651;47.552;7.606;2022-07-18T02:11:24;20.60;99.90
20985;DHT22;10651;47.552;7.606;2022-07-18T02:13:50;20.50;99.90
20985;DHT22;10651;47.552;7.606;2022-07-18T02:16:16;20.50;99.90
20985;DHT22;10651;47.552;7.606;2022-07-18T02:18:42;20.50;99.90
20985;DHT22;10651;47.552;7.606;2022-07-18T02:21:07;20.30;99.90
20985;DHT22;10651;47.552;7.606;2022-07-18T02:23:34;20.20;99.90
20985;DHT22;10651;47.552;7.606;2022-07-18T02:25:59;20.10;99.90
20985;DHT22;10651;47.552;7.606;2022-07-18T02:28:25;20.10;99.90
20985;DHT22;10651;47.552;7.606;2022-07-18T02:30:51;20.00;99.90
20985;DHT22;10651;47.552;7.606;2022-07-18T02:33:18;20.00;99.90
20985;DHT22;10651;47.552;7.606;2022-07-18T02:35:44;20.00;99.90
20985;DHT22;10651;47.552;7.606;2022-07-18T02:38:10;19.80;99.90
20985;DHT22;10651;47.552;7.606;2022-07-18T02:40:36;19.80;99.90
20985;DHT22;10651;47.552;7.606;2022-07-18T02:43:01;19.90;99.90
20985;DHT22;10651;47.552;7.606;2022-07-18T02:45:27;19.80;99.90
20985;DHT22;10651;47.552;7.606;2022-07-18T02:47:53;19.70;99.90
20985;DHT22;10651;47.552;7.606;2022-07-18T02:50:19;19.70;99.90
20985;DHT22;10651;47.552;7.606;2022-07-18T02:52:44;19.60;99.90
20985;DHT22;10651;47.552;7.606;2022-07-18T02:55:11;19.60;99.90
20985;DHT22;10651;47.552;7.606;2022-07-18T02:57:37;19.50;99.90
20985;DHT22;10651;47.552;7.606;2022-07-18T03:00:05;19.50;99.90
20985;DHT22;10651;47.552;7.606;2022-07-18T03:02:31;19.50;99.90
20985;DHT22;10651;47.552;7.606;2022-07-18T03:04:57;19.50;99.90
20985;DHT22;10651;47.552;7.606;2022-07-18T03:07:23;19.60;99.90
20985;DHT22;10651;47.552;7.606;2022-07-18T03:09:48;19.70;99.90
20985;DHT22;10651;47.552;7.606;2022-07-18T03:12:14;19.70;99.90
20985;DHT22;10651;47.552;7.606;2022-07-18T03:14:40;19.60;99.90
20985;DHT22;10651;47.552;7.606;2022-07-18T03:17:05;19.60;99.90
20985;DHT22;10651;47.552;7.606;2022-07-18T03:19:31;19.50;99.90
20985;DHT22;10651;47.552;7.606;2022-07-18T03:21:57;19.50;99.90
20985;DHT22;10651;47.552;7.606;2022-07-18T03:24:22;19.50;99.90
20985;DHT22;10651;47.552;7.606;2022-07-18T03:26:48;19.40;99.90
20985;DHT22;10651;47.552;7.606;2022-07-18T03:29:14;19.30;99.90
20985;DHT22;10651;47.552;7.606;2022-07-18T03:31:39;19.30;99.90
20985;DHT22;10651;47.552;7.606;2022-07-18T03:34:05;19.30;99.90
20985;DHT22;10651;47.552;7.606;2022-07-18T03:36:31;19.30;99.90
20985;DHT22;10651;47.552;7.606;2022-07-18T03:38:57;19.30;99.90
20985;DHT22;10651;47.552;7.606;2022-07-18T03:41:23;19.20;99.90
20985;DHT22;10651;47.552;7.606;2022-07-18T03:43:48;19.20;99.90
20985;DHT22;10651;47.552;7.606;2022-07-18T03:46:14;19.20;99.90
20985;DHT22;10651;47.552;7.606;2022-07-18T03:48:40;19.10;99.90
20985;DHT22;10651;47.552;7.606;2022-07-18T03:51:06;19.10;99.90
20985;DHT22;10651;47.552;7.606;2022-07-18T03:53:32;19.10;99.90
20985;DHT22;10651;47.552;7.606;2022-07-18T03:55:58;19.10;99.90
20985;DHT22;10651;47.552;7.606;2022-07-18T03:58:24;19.10;99.90
20985;DHT22;10651;47.552;7.606;2022-07-18T04:00:50;19.00;99.90
20985;DHT22;10651;47.552;7.606;2022-07-18T04:03:16;19.10;99.90
20985;DHT22;10651;47.552;7.606;2022-07-18T04:05:43;19.10;99.90
20985;DHT22;10651;47.552;7.606;2022-07-18T04:08:08;19.10;99.90
20985;DHT22;10651;47.552;7.606;2022-07-18T04:10:34;19.00;99.90
20985;DHT22;10651;47.552;7.606;2022-07-18T04:12:59;19.00;99.90
20985;DHT22;10651;47.552;7.606;2022-07-18T04:15:26;19.00;99.90
20985;DHT22;10651;47.552;7.606;2022-07-18T04:17:52;19.00;99.90
20985;DHT22;10651;47.552;7.606;2022-07-18T04:20:19;19.10;99.90
20985;DHT22;10651;47.552;7.606;2022-07-18T04:25:18;19.10;99.90
20985;DHT22;10651;47.552;7.606;2022-07-18T04:27:44;19.10;99.90
20985;DHT22;10651;47.552;7.606;2022-07-18T04:30:11;19.00;99.90
20985;DHT22;10651;47.552;7.606;2022-07-18T04:32:37;19.00;99.90
20985;DHT22;10651;47.552;7.606;2022-07-18T04:35:04;18.90;99.90
20985;DHT22;10651;47.552;7.606;2022-07-18T04:37:31;18.90;99.90
20985;DHT22;10651;47.552;7.606;2022-07-18T04:39:57;18.90;99.90
20985;DHT22;10651;47.552;7.606;2022-07-18T04:42:23;19.00;99.90
20985;DHT22;10651;47.552;7.606;2022-07-18T04:44:49;19.00;99.90
20985;DHT22;10651;47.552;7.606;2022-07-18T04:47:14;19.10;99.90
20985;DHT22;10651;47.552;7.606;2022-07-18T04:49:40;19.00;99.90
20985;DHT22;10651;47.552;7.606;2022-07-18T04:52:05;19.00;99.90
20985;DHT22;10651;47.552;7.606;2022-07-18T04:54:31;19.00;99.90
20985;DHT22;10651;47.552;7.606;2022-07-18T04:56:57;19.10;99.90
20985;DHT22;10651;47.552;7.606;2022-07-18T04:59:22;19.10;99.90
20985;DHT22;10651;47.552;7.606;2022-07-18T05:01:48;19.20;99.90
20985;DHT22;10651;47.552;7.606;2022-07-18T05:04:14;19.20;99.90
20985;DHT22;10651;47.552;7.606;2022-07-18T05:06:39;19.10;99.90
20985;DHT22;10651;47.552;7.606;2022-07-18T05:09:05;19.10;99.90
20985;DHT22;10651;47.552;7.606;2022-07-18T05:11:30;19.10;99.90
20985;DHT22;10651;47.552;7.606;2022-07-18T05:13:56;19.10;99.90
20985;DHT22;10651;47.552;7.606;2022-07-18T05:16:22;19.20;99.90
20985;DHT22;10651;47.552;7.606;2022-07-18T05:18:47;19.20;99.90
20985;DHT22;10651;47.552;7.606;2022-07-18T05:21:13;19.20;99.90
20985;DHT22;10651;47.552;7.606;2022-07-18T05:23:38;19.30;99.90
20985;DHT22;10651;47.552;7.606;2022-07-18T05:26:04;19.30;99.90
20985;DHT22;10651;47.552;7.606;2022-07-18T05:28:30;19.40;99.90
20985;DHT22;10651;47.552;7.606;2022-07-18T05:30:56;19.40;99.90
20985;DHT22;10651;47.552;7.606;2022-07-18T05:33:21;19.40;99.90
20985;DHT22;10651;47.552;7.606;2022-07-18T05:35:47;19.30;99.90
20985;DHT22;10651;47.552;7.606;2022-07-18T05:38:13;19.30;99.90
20985;DHT22;10651;47.552;7.606;2022-07-18T05:40:39;19.30;99.90
20985;DHT22;10651;47.552;7.606;2022-07-18T05:43:05;19.10;99.90
20985;DHT22;10651;47.552;7.606;2022-07-18T05:45:31;19.20;99.90
20985;DHT22;10651;47.552;7.606;2022-07-18T05:47:57;19.30;99.90
20985;DHT22;10651;47.552;7.606;2022-07-18T05:50:23;19.40;99.90
20985;DHT22;10651;47.552;7.606;2022-07-18T05:52:51;19.40;99.90
20985;DHT22;10651;47.552;7.606;2022-07-18T05:55:16;19.40;99.90
20985;DHT22;10651;47.552;7.606;2022-07-18T05:57:42;19.40;99.90
20985;DHT22;10651;47.552;7.606;2022-07-18T06:00:09;19.60;99.90
20985;DHT22;10651;47.552;7.606;2022-07-18T06:02:36;19.70;99.90
20985;DHT22;10651;47.552;7.606;2022-07-18T06:05:03;19.70;99.90
20985;DHT22;10651;47.552;7.606;2022-07-18T06:07:29;19.90;99.90
20985;DHT22;10651;47.552;7.606;2022-07-18T06:09:54;20.00;99.90
20985;DHT22;10651;47.552;7.606;2022-07-18T06:12:21;20.10;99.90
20985;DHT22;10651;47.552;7.606;2022-07-18T06:14:47;20.20;99.90
20985;DHT22;10651;47.552;7.606;2022-07-18T06:17:12;20.20;99.90
20985;DHT22;10651;47.552;7.606;2022-07-18T06:19:38;20.20;99.90
20985;DHT22;10651;47.552;7.606;2022-07-18T06:22:04;20.10;99.90
20985;DHT22;10651;47.552;7.606;2022-07-18T06:24:30;20.20;99.90
20985;DHT22;10651;47.552;7.606;2022-07-18T06:26:56;20.30;99.90
20985;DHT22;10651;47.552;7.606;2022-07-18T06:29:22;20.20;99.90
20985;DHT22;10651;47.552;7.606;2022-07-18T06:31:48;20.30;99.90
20985;DHT22;10651;47.552;7.606;2022-07-18T06:34:13;20.50;99.90
20985;DHT22;10651;47.552;7.606;2022-07-18T06:36:39;20.60;99.90
20985;DHT22;10651;47.552;7.606;2022-07-18T06:39:05;20.70;99.90
20985;DHT22;10651;47.552;7.606;2022-07-18T06:41:36;20.70;99.90
20985;DHT22;10651;47.552;7.606;2022-07-18T06:44:02;20.70;99.90
20985;DHT22;10651;47.552;7.606;2022-07-18T06:46:28;20.80;99.90
20985;DHT22;10651;47.552;7.606;2022-07-18T06:48:53;20.70;99.90
20985;DHT22;10651;47.552;7.606;2022-07-18T06:51:19;20.80;99.90
20985;DHT22;10651;47.552;7.606;2022-07-18T06:53:45;20.90;99.90
20985;DHT22;10651;47.552;7.606;2022-07-18T06:56:10;20.80;99.90
20985;DHT22;10651;47.552;7.606;2022-07-18T06:58:36;20.80;99.90
20985;DHT22;10651;47.552;7.606;2022-07-18T07:01:02;21.00;99.90
20985;DHT22;10651;47.552;7.606;2022-07-18T07:03:28;21.10;99.90
20985;DHT22;10651;47.552;7.606;2022-07-18T07:05:53;21.20;99.90
20985;DHT22;10651;47.552;7.606;2022-07-18T07:08:19;21.30;99.90
20985;DHT22;10651;47.552;7.606;2022-07-18T07:10:45;21.40;99.90
20985;DHT22;10651;47.552;7.606;2022-07-18T07:13:10;21.50;99.90
20985;DHT22;10651;47.552;7.606;2022-07-18T07:15:36;21.60;99.90
20985;DHT22;10651;47.552;7.606;2022-07-18T07:18:02;21.60;99.90
20985;DHT22;10651;47.552;7.606;2022-07-18T07:20:27;21.70;99.90
20985;DHT22;10651;47.552;7.606;2022-07-18T07:22:54;21.90;99.90
20985;DHT22;10651;47.552;7.606;2022-07-18T07:25:23;21.90;99.90
20985;DHT22;10651;47.552;7.606;2022-07-18T07:27:48;21.90;99.90
20985;DHT22;10651;47.552;7.606;2022-07-18T07:30:15;22.00;99.90
20985;DHT22;10651;47.552;7.606;2022-07-18T07:32:43;22.10;99.90
20985;DHT22;10651;47.552;7.606;2022-07-18T07:35:09;22.20;99.90
20985;DHT22;10651;47.552;7.606;2022-07-18T07:37:44;22.30;99.90
20985;DHT22;10651;47.552;7.606;2022-07-18T07:40:10;22.30;99.90
20985;DHT22;10651;47.552;7.606;2022-07-18T07:42:36;22.40;99.90
20985;DHT22;10651;47.552;7.606;2022-07-18T07:45:03;22.50;99.90
20985;DHT22;10651;47.552;7.606;2022-07-18T07:47:29;22.60;99.90
20985;DHT22;10651;47.552;7.606;2022-07-18T07:49:55;22.60;99.90
20985;DHT22;10651;47.552;7.606;2022-07-18T07:52:21;22.70;99.90
20985;DHT22;10651;47.552;7.606;2022-07-18T07:54:48;22.80;99.90
20985;DHT22;10651;47.552;7.606;2022-07-18T07:57:14;22.80;99.90
20985;DHT22;10651;47.552;7.606;2022-07-18T07:59:40;22.90;99.90
20985;DHT22;10651;47.552;7.606;2022-07-18T08:02:06;23.10;99.90
20985;DHT22;10651;47.552;7.606;2022-07-18T08:04:32;23.10;99.90
20985;DHT22;10651;47.552;7.606;2022-07-18T08:06:57;23.20;99.90
20985;DHT22;10651;47.552;7.606;2022-07-18T08:09:23;23.20;99.90
20985;DHT22;10651;47.552;7.606;2022-07-18T08:11:48;23.30;99.90
20985;DHT22;10651;47.552;7.606;2022-07-18T08:14:14;23.30;99.90
20985;DHT22;10651;47.552;7.606;2022-07-18T08:16:43;23.40;99.90
20985;DHT22;10651;47.552;7.606;2022-07-18T08:19:14;23.40;99.90
20985;DHT22;10651;47.552;7.606;2022-07-18T08:22:32;23.60;99.90
20985;DHT22;10651;47.552;7.606;2022-07-18T08:25:48;23.60;99.90
20985;DHT22;10651;47.552;7.606;2022-07-18T08:28:16;23.70;99.90
20985;DHT22;10651;47.552;7.606;2022-07-18T08:30:42;23.70;99.90
20985;DHT22;10651;47.552;7.606;2022-07-18T08:33:08;23.90;99.90
20985;DHT22;10651;47.552;7.606;2022-07-18T08:35:34;24.00;99.90
20985;DHT22;10651;47.552;7.606;2022-07-18T08:38:01;24.10;99.90
20985;DHT22;10651;47.552;7.606;2022-07-18T08:40:27;24.30;99.90
20985;DHT22;10651;47.552;7.606;2022-07-18T08:42:56;24.40;99.90
20985;DHT22;10651;47.552;7.606;2022-07-18T08:45:23;24.30;99.90
20985;DHT22;10651;47.552;7.606;2022-07-18T08:47:50;24.70;99.90
20985;DHT22;10651;47.552;7.606;2022-07-18T08:50:17;25.00;99.90
20985;DHT22;10651;47.552;7.606;2022-07-18T08:52:43;24.90;99.90
20985;DHT22;10651;47.552;7.606;2022-07-18T08:55:09;25.00;99.90
20985;DHT22;10651;47.552;7.606;2022-07-18T08:57:35;25.00;99.90
20985;DHT22;10651;47.552;7.606;2022-07-18T09:00:06;25.00;99.90
20985;DHT22;10651;47.552;7.606;2022-07-18T09:02:32;24.90;99.90
20985;DHT22;10651;47.552;7.606;2022-07-18T09:05:01;25.00;99.90
20985;DHT22;10651;47.552;7.606;2022-07-18T09:07:29;25.50;99.90
20985;DHT22;10651;47.552;7.606;2022-07-18T09:09:57;25.50;99.90
20985;DHT22;10651;47.552;7.606;2022-07-18T09:12:25;25.70;99.90
20985;DHT22;10651;47.552;7.606;2022-07-18T09:14:51;26.20;99.90
20985;DHT22;10651;47.552;7.606;2022-07-18T09:17:22;26.70;99.90
20985;DHT22;10651;47.552;7.606;2022-07-18T09:20:04;27.00;96.50
20985;DHT22;10651;47.552;7.606;2022-07-18T09:22:33;27.00;98.30
20985;DHT22;10651;47.552;7.606;2022-07-18T09:27:33;27.00;95.00
20985;DHT22;10651;47.552;7.606;2022-07-18T09:30:15;27.30;96.00
20985;DHT22;10651;47.552;7.606;2022-07-18T09:32:47;27.40;94.10
20985;DHT22;10651;47.552;7.606;2022-07-18T09:35:34;27.80;94.80
20985;DHT22;10651;47.552;7.606;2022-07-18T09:38:04;27.90;93.30
20985;DHT22;10651;47.552;7.606;2022-07-18T09:40:33;28.00;92.10
20985;DHT22;10651;47.552;7.606;2022-07-18T09:43:02;27.80;93.50
20985;DHT22;10651;47.552;7.606;2022-07-18T09:45:37;28.00;92.30
20985;DHT22;10651;47.552;7.606;2022-07-18T09:48:11;28.00;93.90
20985;DHT22;10651;47.552;7.606;2022-07-18T09:50:41;28.20;92.60
20985;DHT22;10651;47.552;7.606;2022-07-18T09:53:08;28.30;92.40
20985;DHT22;10651;47.552;7.606;2022-07-18T09:55:35;28.70;90.60
20985;DHT22;10651;47.552;7.606;2022-07-18T09:58:06;28.70;90.30
20985;DHT22;10651;47.552;7.606;2022-07-18T10:00:34;28.60;90.20
20985;DHT22;10651;47.552;7.606;2022-07-18T10:03:01;29.10;86.60
20985;DHT22;10651;47.552;7.606;2022-07-18T10:05:30;29.20;83.60
20985;DHT22;10651;47.552;7.606;2022-07-18T10:07:57;29.10;83.50
20985;DHT22;10651;47.552;7.606;2022-07-18T10:10:23;29.20;82.30
20985;DHT22;10651;47.552;7.606;2022-07-18T10:12:56;29.50;84.20
20985;DHT22;10651;47.552;7.606;2022-07-18T10:15:25;29.60;85.20
20985;DHT22;10651;47.552;7.606;2022-07-18T10:17:51;29.80;86.30
20985;DHT22;10651;47.552;7.606;2022-07-18T10:20:17;29.90;82.50
20985;DHT22;10651;47.552;7.606;2022-07-18T10:22:51;29.70;82.60
20985;DHT22;10651;47.552;7.606;2022-07-18T10:25:21;29.80;81.50
20985;DHT22;10651;47.552;7.606;2022-07-18T10:28:13;29.90;85.00
20985;DHT22;10651;47.552;7.606;2022-07-18T10:30:47;30.00;80.40
20985;DHT22;10651;47.552;7.606;2022-07-18T10:36:07;30.00;81.20
20985;DHT22;10651;47.552;7.606;2022-07-18T10:38:33;30.20;79.40
20985;DHT22;10651;47.552;7.606;2022-07-18T10:41:08;30.00;77.80
20985;DHT22;10651;47.552;7.606;2022-07-18T10:43:37;30.20;82.50
20985;DHT22;10651;47.552;7.606;2022-07-18T10:46:04;30.60;80.10
20985;DHT22;10651;47.552;7.606;2022-07-18T10:59:18;30.60;77.40
20985;DHT22;10651;47.552;7.606;2022-07-18T11:01:57;30.60;76.70
20985;DHT22;10651;47.552;7.606;2022-07-18T11:04:29;30.80;77.30
20985;DHT22;10651;47.552;7.606;2022-07-18T11:13:44;30.90;73.50
20985;DHT22;10651;47.552;7.606;2022-07-18T11:16:23;31.00;81.70
20985;DHT22;10651;47.552;7.606;2022-07-18T11:21:34;29.10;85.50
20985;DHT22;10651;47.552;7.606;2022-07-18T11:24:05;29.30;80.60
20985;DHT22;10651;47.552;7.606;2022-07-18T11:26:44;29.00;82.00
20985;DHT22;10651;47.552;7.606;2022-07-18T11:29:12;29.50;80.60
20985;DHT22;10651;47.552;7.606;2022-07-18T11:31:52;29.40;78.20
20985;DHT22;10651;47.552;7.606;2022-07-18T11:34:21;29.10;80.60
20985;DHT22;10651;47.552;7.606;2022-07-18T11:36:48;29.20;79.60
20985;DHT22;10651;47.552;7.606;2022-07-18T11:39:14;29.30;80.20
20985;DHT22;10651;47.552;7.606;2022-07-18T11:41:41;29.00;80.00
20985;DHT22;10651;47.552;7.606;2022-07-18T11:44:19;28.90;81.90
20985;DHT22;10651;47.552;7.606;2022-07-18T11:47:10;28.80;82.20
20985;DHT22;10651;47.552;7.606;2022-07-18T11:49:53;29.80;78.40
20985;DHT22;10651;47.552;7.606;2022-07-18T11:55:55;31.60;72.70
20985;DHT22;10651;47.552;7.606;2022-07-18T11:58:24;32.30;73.20
20985;DHT22;10651;47.552;7.606;2022-07-18T12:00:59;32.20;69.10
20985;DHT22;10651;47.552;7.606;2022-07-18T12:03:33;32.30;68.10
20985;DHT22;10651;47.552;7.606;2022-07-18T12:06:12;32.50;69.20
20985;DHT22;10651;47.552;7.606;2022-07-18T12:08:47;32.80;69.00
20985;DHT22;10651;47.552;7.606;2022-07-18T12:11:33;32.90;67.30
20985;DHT22;10651;47.552;7.606;2022-07-18T12:14:13;32.60;64.70
20985;DHT22;10651;47.552;7.606;2022-07-18T12:16:43;32.90;67.50
20985;DHT22;10651;47.552;7.606;2022-07-18T12:19:14;33.20;67.50
20985;DHT22;10651;47.552;7.606;2022-07-18T12:21:48;33.20;65.00
20985;DHT22;10651;47.552;7.606;2022-07-18T12:27:13;33.20;63.90
20985;DHT22;10651;47.552;7.606;2022-07-18T12:30:11;33.30;64.20
20985;DHT22;10651;47.552;7.606;2022-07-18T12:35:20;33.50;62.60
20985;DHT22;10651;47.552;7.606;2022-07-18T12:38:04;33.60;64.10
20985;DHT22;10651;47.552;7.606;2022-07-18T12:43:27;33.40;61.10
20985;DHT22;10651;47.552;7.606;2022-07-18T12:45:55;33.40;61.30
20985;DHT22;10651;47.552;7.606;2022-07-18T12:48:22;33.30;60.30
20985;DHT22;10651;47.552;7.606;2022-07-18T12:51:00;33.50;62.10
20985;DHT22;10651;47.552;7.606;2022-07-18T12:53:27;33.80;62.30
20985;DHT22;10651;47.552;7.606;2022-07-18T12:55:53;34.10;62.90
20985;DHT22;10651;47.552;7.606;2022-07-18T12:58:20;34.10;61.90
20985;DHT22;10651;47.552;7.606;2022-07-18T13:00:46;34.20;63.40
20985;DHT22;10651;47.552;7.606;2022-07-18T13:03:13;34.30;62.90
20985;DHT22;10651;47.552;7.606;2022-07-18T13:05:39;34.20;60.00
20985;DHT22;10651;47.552;7.606;2022-07-18T13:08:05;34.10;62.00
20985;DHT22;10651;47.552;7.606;2022-07-18T13:10:32;34.20;61.50
20985;DHT22;10651;47.552;7.606;2022-07-18T13:13:00;34.20;66.50
20985;DHT22;10651;47.552;7.606;2022-07-18T13:15:27;34.30;66.60
20985;DHT22;10651;47.552;7.606;2022-07-18T13:17:52;34.30;68.60
20985;DHT22;10651;47.552;7.606;2022-07-18T13:20:18;34.20;69.00
20985;DHT22;10651;47.552;7.606;2022-07-18T13:22:44;34.00;69.90
20985;DHT22;10651;47.552;7.606;2022-07-18T13:25:10;34.10;69.20
20985;DHT22;10651;47.552;7.606;2022-07-18T13:27:37;34.20;68.40
20985;DHT22;10651;47.552;7.606;2022-07-18T13:30:07;34.10;67.90
20985;DHT22;10651;47.552;7.606;2022-07-18T13:32:36;34.20;67.10
20985;DHT22;10651;47.552;7.606;2022-07-18T13:35:03;34.10;67.20
20985;DHT22;10651;47.552;7.606;2022-07-18T13:37:29;34.30;69.80
20985;DHT22;10651;47.552;7.606;2022-07-18T13:39:55;34.60;70.50
20985;DHT22;10651;47.552;7.606;2022-07-18T13:42:20;34.70;70.50
20985;DHT22;10651;47.552;7.606;2022-07-18T13:44:46;35.00;70.60
20985;DHT22;10651;47.552;7.606;2022-07-18T13:47:12;34.80;68.30
20985;DHT22;10651;47.552;7.606;2022-07-18T13:49:38;34.80;68.50
20985;DHT22;10651;47.552;7.606;2022-07-18T13:52:04;34.60;68.30
20985;DHT22;10651;47.552;7.606;2022-07-18T13:54:30;34.60;67.40
20985;DHT22;10651;47.552;7.606;2022-07-18T13:56:56;34.60;69.70
20985;DHT22;10651;47.552;7.606;2022-07-18T13:59:21;34.70;67.80
20985;DHT22;10651;47.552;7.606;2022-07-18T14:01:47;34.80;68.70
20985;DHT22;10651;47.552;7.606;2022-07-18T14:04:13;34.70;68.80
20985;DHT22;10651;47.552;7.606;2022-07-18T14:06:38;34.90;69.10
20985;DHT22;10651;47.552;7.606;2022-07-18T14:09:05;34.80;67.20
20985;DHT22;10651;47.552;7.606;2022-07-18T14:11:31;34.80;69.00
20985;DHT22;10651;47.552;7.606;2022-07-18T14:13:59;34.80;67.80
20985;DHT22;10651;47.552;7.606;2022-07-18T14:16:27;34.90;67.70
20985;DHT22;10651;47.552;7.606;2022-07-18T14:18:53;34.70;67.10
20985;DHT22;10651;47.552;7.606;2022-07-18T14:21:19;34.80;68.80
20985;DHT22;10651;47.552;7.606;2022-07-18T14:23:45;34.70;67.50
20985;DHT22;10651;47.552;7.606;2022-07-18T14:26:10;34.60;66.30
20985;DHT22;10651;47.552;7.606;2022-07-18T14:28:36;34.70;67.60
20985;DHT22;10651;47.552;7.606;2022-07-18T14:31:02;34.90;68.10
20985;DHT22;10651;47.552;7.606;2022-07-18T14:33:27;35.00;66.60
20985;DHT22;10651;47.552;7.606;2022-07-18T14:35:53;34.70;67.00
20985;DHT22;10651;47.552;7.606;2022-07-18T14:38:19;34.60;66.70
20985;DHT22;10651;47.552;7.606;2022-07-18T14:40:44;34.60;67.90
20985;DHT22;10651;47.552;7.606;2022-07-18T14:43:10;34.70;68.20
20985;DHT22;10651;47.552;7.606;2022-07-18T14:45:36;34.70;68.60
20985;DHT22;10651;47.552;7.606;2022-07-18T14:48:01;34.80;68.70
20985;DHT22;10651;47.552;7.606;2022-07-18T14:50:30;34.90;66.80
20985;DHT22;10651;47.552;7.606;2022-07-18T14:52:56;34.70;67.30
20985;DHT22;10651;47.552;7.606;2022-07-18T14:55:22;34.60;67.90
20985;DHT22;10651;47.552;7.606;2022-07-18T14:57:47;34.50;68.10
20985;DHT22;10651;47.552;7.606;2022-07-18T15:00:13;34.70;68.10
20985;DHT22;10651;47.552;7.606;2022-07-18T15:02:39;34.80;67.00
20985;DHT22;10651;47.552;7.606;2022-07-18T15:05:06;34.70;66.20
20985;DHT22;10651;47.552;7.606;2022-07-18T15:07:32;34.70;66.20
20985;DHT22;10651;47.552;7.606;2022-07-18T15:09:58;34.60;68.60
20985;DHT22;10651;47.552;7.606;2022-07-18T15:12:24;34.50;67.20
20985;DHT22;10651;47.552;7.606;2022-07-18T15:14:50;34.60;66.80
20985;DHT22;10651;47.552;7.606;2022-07-18T15:17:16;34.30;65.60
20985;DHT22;10651;47.552;7.606;2022-07-18T15:19:42;34.50;66.60
20985;DHT22;10651;47.552;7.606;2022-07-18T15:22:07;34.50;67.70
20985;DHT22;10651;47.552;7.606;2022-07-18T15:24:34;34.60;68.00
20985;DHT22;10651;47.552;7.606;2022-07-18T15:27:00;34.60;67.70
20985;DHT22;10651;47.552;7.606;2022-07-18T15:29:26;34.70;67.70
20985;DHT22;10651;47.552;7.606;2022-07-18T15:31:52;34.50;66.20
20985;DHT22;10651;47.552;7.606;2022-07-18T15:34:18;34.50;66.10
20985;DHT22;10651;47.552;7.606;2022-07-18T15:36:44;34.50;67.00
20985;DHT22;10651;47.552;7.606;2022-07-18T15:39:09;34.50;67.90
20985;DHT22;10651;47.552;7.606;2022-07-18T15:41:35;34.40;65.70
20985;DHT22;10651;47.552;7.606;2022-07-18T15:44:01;34.40;67.50
20985;DHT22;10651;47.552;7.606;2022-07-18T15:46:27;34.40;66.80
20985;DHT22;10651;47.552;7.606;2022-07-18T15:48:52;34.30;66.40
20985;DHT22;10651;47.552;7.606;2022-07-18T15:51:19;34.20;67.00
20985;DHT22;10651;47.552;7.606;2022-07-18T15:53:45;34.10;66.70
20985;DHT22;10651;47.552;7.606;2022-07-18T15:56:10;34.20;67.50
20985;DHT22;10651;47.552;7.606;2022-07-18T15:58:36;34.20;66.60
20985;DHT22;10651;47.552;7.606;2022-07-18T16:01:02;34.20;67.30
20985;DHT22;10651;47.552;7.606;2022-07-18T16:03:28;34.20;66.20
20985;DHT22;10651;47.552;7.606;2022-07-18T16:05:54;34.10;67.40
20985;DHT22;10651;47.552;7.606;2022-07-18T16:08:26;34.20;66.60
20985;DHT22;10651;47.552;7.606;2022-07-18T16:10:55;34.30;67.00
20985;DHT22;10651;47.552;7.606;2022-07-18T16:13:21;34.20;67.30